createdAt,value
2019-05-16T00:01:04.279Z,4.20
2019-05-16T00:03:40.925Z,2.70
2019-05-16T00:06:09.970Z,3.33
2019-05-16T00:08:39.063Z,5.27
2019-05-16T00:11:08.638Z,1.90
2019-05-16T00:13:38.353Z,3.47
2019-05-16T00:16:07.965Z,1.90
2019-05-16T00:18:38.811Z,2.00
2019-05-16T00:21:08.732Z,2.83
2019-05-16T00:23:37.930Z,2.13
2019-05-16T00:26:07.847Z,2.00
2019-05-16T00:28:38.003Z,3.37
2019-05-16T00:31:08.657Z,2.33
2019-05-16T00:33:38.094Z,4.37
2019-05-16T00:36:09.202Z,2.27
2019-05-16T00:38:38.052Z,2.40
2019-05-16T00:41:08.485Z,1.90
2019-05-16T00:43:37.948Z,2.10
2019-05-16T00:46:08.254Z,5.03
2019-05-16T00:48:38.149Z,3.33
2019-05-16T00:51:07.922Z,1.73
2019-05-16T00:53:38.265Z,2.17
2019-05-16T00:56:07.942Z,4.63
2019-05-16T00:58:38.024Z,2.90
2019-05-16T01:01:08.563Z,2.13
2019-05-16T01:03:38.708Z,3.80
2019-05-16T01:06:18.443Z,2.60
2019-05-16T01:08:38.714Z,2.37
2019-05-16T01:11:08.013Z,3.30
2019-05-16T01:13:38.083Z,2.80
2019-05-16T01:16:08.581Z,2.80
2019-05-16T01:18:45.368Z,2.90
2019-05-16T01:21:14.381Z,4.03
2019-05-16T01:23:48.055Z,3.60
2019-05-16T01:26:18.651Z,2.30
2019-05-16T01:28:48.372Z,3.43
2019-05-16T01:31:19.137Z,2.53
2019-05-16T01:33:48.427Z,2.90
2019-05-16T01:36:26.237Z,2.67
2019-05-16T01:38:48.659Z,2.10
2019-05-16T01:41:18.153Z,2.57
2019-05-16T01:43:48.307Z,2.20
2019-05-16T01:46:18.209Z,2.90
2019-05-16T01:48:48.464Z,3.50
2019-05-16T01:51:18.436Z,2.20
2019-05-16T01:53:48.797Z,2.33
2019-05-16T01:56:18.198Z,4.77
2019-05-16T01:58:49.084Z,2.23
2019-05-16T02:01:18.947Z,4.33
2019-05-16T02:03:48.683Z,3.50
2019-05-16T02:06:18.419Z,10.33
2019-05-16T02:08:48.753Z,2.30
2019-05-16T02:11:18.222Z,2.80
2019-05-16T02:13:48.451Z,2.73
2019-05-16T02:16:18.791Z,3.03
2019-05-16T02:18:48.845Z,4.53
2019-05-16T02:21:18.330Z,2.73
2019-05-16T02:23:51.330Z,5.10
2019-05-16T02:26:19.114Z,3.07
2019-05-16T02:28:50.749Z,2.30
2019-05-16T02:31:22.566Z,3.70
2019-05-16T02:33:51.400Z,8.53
2019-05-16T02:36:21.697Z,2.57
2019-05-16T02:38:55.360Z,2.93
2019-05-16T02:41:23.058Z,4.23
2019-05-16T02:43:53.122Z,2.70
2019-05-16T02:46:22.475Z,3.93
2019-05-16T02:48:52.057Z,3.63
2019-05-16T02:51:21.600Z,2.43
2019-05-16T02:53:51.190Z,3.00
2019-05-16T02:56:21.220Z,2.30
2019-05-16T02:58:52.190Z,2.33
2019-05-16T03:01:21.901Z,3.00
2019-05-16T03:03:51.698Z,3.07
2019-05-16T03:06:21.351Z,2.50
2019-05-16T03:08:50.853Z,2.73
2019-05-16T03:11:21.870Z,3.17
2019-05-16T03:13:51.490Z,4.17
2019-05-16T03:16:24.093Z,3.50
2019-05-16T03:18:54.788Z,3.27
2019-05-16T03:21:25.871Z,2.70
2019-05-16T03:24:00.838Z,3.07
2019-05-16T03:26:40.837Z,2.63
2019-05-16T03:29:11.399Z,3.13
2019-05-16T03:31:44.641Z,2.90
2019-05-16T03:34:16.240Z,3.10
2019-05-16T03:36:44.115Z,9.73
2019-05-16T03:39:11.991Z,4.80
2019-05-16T03:41:41.589Z,3.60
2019-05-16T03:44:11.421Z,2.70
2019-05-16T03:46:41.270Z,3.60
2019-05-16T03:49:11.404Z,2.93
2019-05-16T03:51:41.511Z,3.50
2019-05-16T03:54:12.405Z,3.80
2019-05-16T03:56:41.542Z,3.57
2019-05-16T03:59:11.102Z,2.43
2019-05-16T04:01:41.038Z,2.53
2019-05-16T04:04:11.749Z,4.43
2019-05-16T04:06:42.113Z,2.20
2019-05-16T04:09:12.295Z,2.90
2019-05-16T04:11:42.788Z,3.10
2019-05-16T04:14:12.122Z,3.20
2019-05-16T04:16:41.544Z,4.57
2019-05-16T04:19:11.527Z,2.53
2019-05-16T04:21:42.111Z,5.10
2019-05-16T04:24:12.454Z,5.60
2019-05-16T04:26:41.742Z,3.70
2019-05-16T04:29:20.657Z,3.27
2019-05-16T04:31:50.909Z,3.30
2019-05-16T04:34:20.829Z,2.20
2019-05-16T04:36:51.383Z,3.70
2019-05-16T04:39:21.001Z,4.10
2019-05-16T04:41:50.911Z,3.20
2019-05-16T04:44:21.367Z,4.10
2019-05-16T04:46:51.009Z,2.53
2019-05-16T04:49:21.229Z,4.53
2019-05-16T04:51:51.738Z,4.63
2019-05-16T04:54:21.597Z,4.70
2019-05-16T04:56:51.426Z,3.07
2019-05-16T04:59:20.984Z,6.20
2019-05-16T05:01:51.124Z,2.90
2019-05-16T05:04:23.682Z,2.20
2019-05-16T05:06:55.800Z,4.50
2019-05-16T05:09:23.690Z,4.13
2019-05-16T05:11:52.774Z,5.00
2019-05-16T05:14:22.306Z,4.20
2019-05-16T05:16:51.308Z,3.93
2019-05-16T05:19:20.456Z,2.60
2019-05-16T05:21:51.408Z,4.50
2019-05-16T05:24:20.387Z,3.00
2019-05-16T05:26:50.344Z,2.20
2019-05-16T05:29:20.111Z,2.90
2019-05-16T05:31:54.918Z,2.70
2019-05-16T05:34:20.102Z,2.47
2019-05-16T05:36:51.255Z,2.47
2019-05-16T05:39:20.106Z,2.97
2019-05-16T05:41:50.474Z,2.80
2019-05-16T05:44:20.331Z,3.37
2019-05-16T05:46:51.144Z,5.10
2019-05-16T05:49:20.552Z,6.10
2019-05-16T05:51:50.101Z,3.43
2019-05-16T05:54:20.375Z,2.47
2019-05-16T05:56:50.115Z,2.50
2019-05-16T05:59:20.177Z,5.93
2019-05-16T06:01:51.692Z,3.53
2019-05-16T06:04:20.221Z,2.80
2019-05-16T06:06:50.444Z,2.87
2019-05-16T06:09:28.333Z,2.00
2019-05-16T06:11:50.440Z,2.80
2019-05-16T06:14:21.218Z,3.20
2019-05-16T06:16:50.929Z,2.73
2019-05-16T06:19:20.472Z,2.40
2019-05-16T06:21:50.311Z,2.77
2019-05-16T06:24:20.102Z,2.33
2019-05-16T06:26:50.481Z,2.30
2019-05-16T06:29:20.405Z,2.03
2019-05-16T06:31:49.797Z,6.63
2019-05-16T06:34:20.922Z,2.30
2019-05-16T06:36:50.863Z,3.50
2019-05-16T06:39:20.136Z,2.90
2019-05-16T06:41:50.867Z,2.17
2019-05-16T06:44:20.364Z,6.80
2019-05-16T06:47:06.177Z,3.17
2019-05-16T06:49:20.151Z,3.20
2019-05-16T06:51:51.331Z,2.17
2019-05-16T06:54:20.746Z,2.80
2019-05-16T06:56:50.998Z,2.00
2019-05-16T06:59:20.321Z,2.10
2019-05-16T07:01:50.007Z,3.67
2019-05-16T07:04:20.035Z,4.90
2019-05-16T07:06:58.785Z,2.70
2019-05-16T07:09:20.637Z,2.07
2019-05-16T07:11:50.467Z,3.40
2019-05-16T07:14:22.807Z,2.70
2019-05-16T07:16:50.389Z,2.40
2019-05-16T07:19:21.953Z,3.57
2019-05-16T07:21:51.014Z,2.20
2019-05-16T07:24:20.096Z,2.03
2019-05-16T07:26:50.087Z,2.23
2019-05-16T07:29:20.269Z,4.07
2019-05-16T07:31:52.353Z,4.23
2019-05-16T07:34:20.709Z,2.30
2019-05-16T07:36:50.294Z,2.90
2019-05-16T07:39:20.128Z,1.90
2019-05-16T07:41:50.827Z,2.57
2019-05-16T07:44:20.884Z,5.77
2019-05-16T07:46:51.580Z,2.23
2019-05-16T07:49:20.788Z,2.00
2019-05-16T07:51:49.941Z,3.53
2019-05-16T07:54:21.268Z,3.83
2019-05-16T07:56:58.072Z,2.37
2019-05-16T07:59:20.614Z,2.10
2019-05-16T08:01:53.666Z,3.70
2019-05-16T08:04:20.424Z,4.27
2019-05-16T08:06:50.207Z,2.60
2019-05-16T08:09:21.136Z,2.53
2019-05-16T08:11:50.235Z,2.13
2019-05-16T08:14:21.225Z,2.13
2019-05-16T08:16:50.317Z,2.43
2019-05-16T08:19:21.134Z,2.17
2019-05-16T08:21:50.580Z,3.17
2019-05-16T08:24:20.600Z,2.43
2019-05-16T08:26:51.458Z,2.40
2019-05-16T08:34:22.151Z,2.63
2019-05-16T08:36:52.016Z,2.20
2019-05-16T08:39:21.507Z,3.00
2019-05-16T08:41:51.908Z,2.43
2019-05-16T08:44:21.709Z,3.93
2019-05-16T08:46:57.190Z,2.87
2019-05-16T08:49:22.237Z,2.90
2019-05-16T08:50:05.859Z,2.80
2019-05-16T08:51:53.239Z,4.50
2019-05-16T08:54:22.636Z,2.20
2019-05-16T08:56:51.637Z,2.57
2019-05-16T08:59:21.528Z,4.37
2019-05-16T09:04:24.384Z,2.30
2019-05-16T09:06:52.695Z,2.80
2019-05-16T09:09:40.025Z,2.60
2019-05-16T09:10:20.961Z,3.33
2019-05-16T09:10:30.920Z,3.30
2019-05-16T09:11:52.527Z,2.50
2019-05-16T09:14:21.587Z,2.90
2019-05-16T09:16:50.655Z,8.50
2019-05-16T09:19:19.740Z,4.20
2019-05-16T09:21:48.807Z,5.10
2019-05-16T09:24:18.164Z,3.47
2019-05-16T09:26:47.572Z,2.50
2019-05-16T09:29:16.935Z,5.57
2019-05-16T09:32:07.407Z,3.57
2019-05-16T09:34:17.650Z,3.93
2019-05-16T09:36:48.114Z,2.40
2019-05-16T09:39:17.451Z,3.80
2019-05-16T09:41:53.977Z,2.60
2019-05-16T09:44:18.345Z,1.97
2019-05-16T09:46:47.746Z,4.10
2019-05-16T09:49:24.132Z,2.57
2019-05-16T09:51:47.561Z,2.53
2019-05-16T09:54:16.900Z,4.20
2019-05-16T09:56:46.435Z,3.83
2019-05-16T09:59:17.209Z,2.73
2019-05-16T10:01:47.758Z,8.20
2019-05-16T10:04:17.564Z,5.07
2019-05-16T10:06:46.785Z,3.10
2019-05-16T10:09:17.489Z,3.70
2019-05-16T10:11:49.478Z,5.37
2019-05-16T10:14:17.633Z,2.37
2019-05-16T10:16:47.757Z,2.40
2019-05-16T10:19:17.050Z,2.33
2019-05-16T10:21:46.235Z,3.50
2019-05-16T10:24:15.412Z,2.67
2019-05-16T10:26:46.567Z,5.23
2019-05-16T10:29:17.997Z,2.90
2019-05-16T10:31:52.781Z,5.87
2019-05-16T10:34:17.405Z,3.00
2019-05-16T10:36:47.150Z,2.93
2019-05-16T10:39:16.347Z,2.80
2019-05-16T10:41:46.706Z,3.50
2019-05-16T10:44:17.433Z,2.63
2019-05-16T10:46:47.883Z,5.07
2019-05-16T10:49:25.541Z,1.87
2019-05-16T10:51:48.053Z,3.03
2019-05-16T10:54:18.321Z,2.63
2019-05-16T10:56:47.892Z,3.00
2019-05-16T10:59:53.329Z,3.43
2019-05-16T11:01:47.839Z,6.13
2019-05-16T11:04:28.546Z,4.07
2019-05-16T11:06:47.616Z,2.93
2019-05-16T11:09:17.384Z,2.90
2019-05-16T11:11:47.645Z,3.37
2019-05-16T11:14:17.443Z,2.80
2019-05-16T11:16:47.427Z,3.30
2019-05-16T11:19:21.270Z,2.60
2019-05-16T11:21:47.420Z,3.27
2019-05-16T11:24:16.447Z,3.03
2019-05-16T11:26:47.334Z,2.60
2019-05-16T11:29:16.578Z,2.60
2019-05-16T11:31:46.796Z,2.40
2019-05-16T11:34:17.330Z,3.20
2019-05-16T11:36:47.847Z,3.30
2019-05-16T11:39:17.481Z,2.90
2019-05-16T11:41:47.493Z,5.23
2019-05-16T11:44:17.661Z,2.70
2019-05-16T11:46:49.176Z,3.10
2019-05-16T11:49:17.657Z,5.73
2019-05-16T11:51:47.388Z,2.70
2019-05-16T11:54:16.493Z,2.50
2019-05-16T11:56:46.399Z,4.03
2019-05-16T11:59:15.544Z,3.57
2019-05-16T12:01:47.258Z,6.80
2019-05-16T12:04:17.382Z,3.03
2019-05-16T12:06:46.827Z,3.10
2019-05-16T12:09:17.857Z,5.20
2019-05-16T12:11:46.674Z,2.60
2019-05-16T12:14:16.561Z,3.43
2019-05-16T12:16:47.268Z,3.63
2019-05-16T12:19:18.224Z,3.10
2019-05-16T12:21:47.409Z,2.73
2019-05-16T12:24:31.917Z,3.97
2019-05-16T12:26:48.069Z,4.53
2019-05-16T12:29:17.478Z,4.53
2019-05-16T12:31:57.199Z,2.93
2019-05-16T12:34:17.290Z,3.90
2019-05-16T12:36:47.222Z,3.07
2019-05-16T12:39:17.258Z,4.10
2019-05-16T12:41:49.076Z,3.20
2019-05-16T12:44:17.360Z,3.90
2019-05-16T12:46:47.436Z,3.50
2019-05-16T12:49:17.528Z,2.77
2019-05-16T12:51:46.800Z,5.30
2019-05-16T12:54:18.474Z,2.60
2019-05-16T12:56:48.368Z,4.23
2019-05-16T12:59:20.609Z,4.40
2019-05-16T13:01:48.539Z,4.57
2019-05-16T13:04:19.040Z,3.07
2019-05-16T13:06:49.176Z,4.07
2019-05-16T13:09:18.754Z,4.37
2019-05-16T13:11:50.345Z,4.60
2019-05-16T13:14:22.116Z,2.93
2019-05-16T13:16:51.252Z,3.30
2019-05-16T13:19:20.652Z,7.50
2019-05-16T13:21:50.293Z,7.53
2019-05-16T13:24:23.160Z,3.10
2019-05-16T13:26:52.183Z,3.60
2019-05-16T13:29:40.368Z,3.77
2019-05-16T13:32:09.385Z,17.23
2019-05-16T13:34:39.062Z,4.63
2019-05-16T13:37:08.464Z,3.27
2019-05-16T13:39:47.448Z,4.60
2019-05-16T13:42:16.666Z,3.10
2019-05-16T13:44:48.990Z,3.50
2019-05-16T13:47:18.233Z,3.30
2019-05-16T13:49:48.936Z,5.07
2019-05-16T13:52:18.018Z,3.60
2019-05-16T13:54:47.414Z,6.00
2019-05-16T13:57:17.191Z,4.23
2019-05-16T13:59:46.362Z,3.57
2019-05-16T14:02:17.425Z,3.00
2019-05-16T14:04:46.732Z,3.30
2019-05-16T14:07:17.154Z,4.07
2019-05-16T14:09:47.133Z,2.93
2019-05-16T14:12:17.647Z,3.30
2019-05-16T14:14:47.826Z,4.50
2019-05-16T14:17:17.914Z,3.27
2019-05-16T14:19:48.083Z,5.17
2019-05-16T14:22:17.685Z,3.43
2019-05-16T14:24:48.108Z,3.43
2019-05-16T14:27:17.445Z,3.67
2019-05-16T14:29:47.669Z,3.13
2019-05-16T14:32:19.695Z,2.70
2019-05-16T14:34:51.343Z,3.10
2019-05-16T14:37:18.755Z,3.00
2019-05-16T14:39:48.876Z,2.83
2019-05-16T14:42:18.951Z,3.40
2019-05-16T14:45:06.812Z,3.50
2019-05-16T14:47:26.997Z,4.77
2019-05-16T14:49:55.218Z,3.00
2019-05-16T14:52:26.968Z,3.90
2019-05-16T14:54:57.419Z,2.60
2019-05-16T14:57:27.359Z,4.67
2019-05-16T14:59:56.841Z,5.03
2019-05-16T15:02:27.468Z,3.03
2019-05-16T15:04:57.016Z,5.50
2019-05-16T15:07:27.655Z,6.10
2019-05-16T15:09:56.951Z,3.53
2019-05-16T15:12:26.907Z,4.27
2019-05-16T15:14:57.273Z,6.40
2019-05-16T15:17:27.454Z,5.50
2019-05-16T15:19:57.249Z,4.37
2019-05-16T15:22:27.328Z,3.17
2019-05-16T15:25:00.025Z,2.97
2019-05-16T15:27:29.685Z,4.53
2019-05-16T15:29:58.953Z,3.10
2019-05-16T15:32:31.835Z,2.37
2019-05-16T15:35:00.559Z,3.63
2019-05-16T15:37:29.669Z,2.67
2019-05-16T15:39:58.688Z,5.60
2019-05-16T15:42:27.899Z,2.80
2019-05-16T15:44:57.003Z,2.87
2019-05-16T15:47:27.802Z,3.33
2019-05-16T15:49:59.585Z,4.73
2019-05-16T15:52:27.562Z,2.83
2019-05-16T15:54:56.576Z,2.87
2019-05-16T15:57:26.905Z,3.17
2019-05-16T15:59:57.558Z,5.43
2019-05-16T16:02:27.238Z,2.87
2019-05-16T16:04:57.566Z,6.33
2019-05-16T16:07:27.192Z,2.67
2019-05-16T16:09:57.676Z,2.97
2019-05-16T16:12:26.926Z,4.87
2019-05-16T16:14:57.445Z,2.60
2019-05-16T16:17:29.194Z,2.87
2019-05-16T16:19:57.938Z,3.40
2019-05-16T16:22:27.059Z,4.70
2019-05-16T16:24:57.674Z,4.37
2019-05-16T16:27:27.431Z,3.10
2019-05-16T16:29:56.656Z,3.40
2019-05-16T16:32:26.913Z,3.73
2019-05-16T16:34:57.532Z,4.00
2019-05-16T16:37:27.489Z,3.20
2019-05-16T16:39:57.591Z,4.60
2019-05-16T16:42:27.321Z,4.87
2019-05-16T16:44:58.840Z,4.47
2019-05-16T16:47:27.868Z,4.70
2019-05-16T16:49:59.264Z,8.70
2019-05-16T16:52:30.682Z,4.73
2019-05-16T16:54:59.803Z,5.10
2019-05-16T16:57:29.033Z,9.70
2019-05-16T16:59:58.120Z,4.60
2019-05-16T17:02:32.580Z,3.90
2019-05-16T17:05:02.751Z,4.77
2019-05-16T17:07:32.141Z,4.73
2019-05-16T17:10:01.133Z,5.53
2019-05-16T17:12:30.231Z,3.37
2019-05-16T17:14:59.323Z,4.87
2019-05-16T17:17:28.430Z,5.00
2019-05-16T17:19:57.499Z,3.57
2019-05-16T17:22:26.690Z,3.30
2019-05-16T17:24:56.691Z,3.57
2019-05-16T17:27:28.874Z,3.27
2019-05-16T17:30:00.595Z,3.70
2019-05-16T17:32:28.588Z,3.80
2019-05-16T17:34:57.642Z,6.13
2019-05-16T17:37:26.829Z,9.93
2019-05-16T17:39:56.963Z,7.33
2019-05-16T17:42:27.213Z,5.13
2019-05-16T17:44:56.651Z,8.70
2019-05-16T17:47:26.319Z,5.00
2019-05-16T17:49:55.501Z,21.17
2019-05-16T17:52:27.153Z,46.80
2019-05-16T17:54:55.267Z,11.63
2019-05-16T17:57:24.360Z,25.10
2019-05-16T17:59:53.439Z,21.80
2019-05-16T18:02:22.411Z,28.33
2019-05-16T18:04:51.490Z,26.17
2019-05-16T18:07:20.545Z,10.07
2019-05-16T18:09:49.950Z,15.97
2019-05-16T18:12:19.062Z,22.50
2019-05-16T18:14:50.371Z,63.90
2019-05-16T18:17:18.850Z,7.10
2019-05-16T18:19:48.103Z,3.50
2019-05-16T18:22:17.088Z,9.57
2019-05-16T18:24:47.442Z,7.30
2019-05-16T18:27:17.220Z,13.10
2019-05-16T18:29:47.062Z,7.33
2019-05-16T18:32:17.039Z,11.00
2019-05-16T18:34:46.247Z,9.93
2019-05-16T18:37:17.177Z,4.90
2019-05-16T18:39:47.412Z,11.10
2019-05-16T18:42:16.849Z,38.77
2019-05-16T18:44:47.182Z,21.23
2019-05-16T18:47:16.352Z,10.63
2019-05-16T18:49:47.346Z,14.03
2019-05-16T18:52:17.357Z,12.77
2019-05-16T18:54:46.693Z,23.90
2019-05-16T18:57:17.554Z,25.80
2019-05-16T18:59:46.479Z,26.27
2019-05-16T19:02:17.752Z,15.93
2019-05-16T19:04:46.580Z,6.20
2019-05-16T19:07:17.065Z,4.30
2019-05-16T19:09:46.135Z,5.37
2019-05-16T19:12:16.956Z,5.10
2019-05-16T19:14:47.285Z,4.63
2019-05-16T19:17:22.051Z,3.20
2019-05-16T19:19:49.239Z,3.97
2019-05-16T19:22:18.671Z,4.00
2019-05-16T19:24:47.845Z,6.43
2019-05-16T19:27:17.341Z,3.07
2019-05-16T19:29:46.580Z,4.17
2019-05-16T19:32:17.234Z,5.20
2019-05-16T19:34:49.162Z,3.57
2019-05-16T19:37:17.491Z,5.53
2019-05-16T19:39:46.540Z,3.20
2019-05-16T19:42:22.389Z,5.20
2019-05-16T19:44:51.485Z,3.60
2019-05-16T19:47:33.913Z,5.47
2019-05-16T19:49:51.928Z,6.40
2019-05-16T19:52:21.125Z,5.70
2019-05-16T19:54:50.953Z,4.57
2019-05-16T19:57:20.035Z,5.23
2019-05-16T19:59:50.171Z,6.00
2019-05-16T20:02:19.207Z,5.87
2019-05-16T20:04:48.444Z,5.60
2019-05-16T20:07:17.422Z,5.70
2019-05-16T20:09:46.952Z,4.20
2019-05-16T20:12:16.911Z,6.53
2019-05-16T20:14:47.270Z,3.73
2019-05-16T20:17:19.335Z,3.50
2019-05-16T20:19:47.169Z,4.53
2019-05-16T20:22:16.644Z,3.20
2019-05-16T20:24:46.862Z,4.77
2019-05-16T20:27:17.046Z,5.20
2019-05-16T20:29:47.462Z,4.17
2019-05-16T20:32:16.916Z,3.40
2019-05-16T20:34:47.077Z,6.37
2019-05-16T20:37:17.457Z,7.70
2019-05-16T20:39:46.659Z,3.90
2019-05-16T20:42:17.142Z,4.00
2019-05-16T20:44:49.456Z,3.60
2019-05-16T20:47:17.229Z,5.77
2019-05-16T20:49:47.707Z,3.57
2019-05-16T20:52:17.489Z,2.83
2019-05-16T20:54:49.864Z,4.30
2019-05-16T20:57:17.414Z,2.87
2019-05-16T20:59:46.343Z,2.43
2019-05-16T21:02:16.827Z,4.63
2019-05-16T21:04:46.473Z,3.70
2019-05-16T21:07:17.208Z,3.03
2019-05-16T21:09:46.458Z,5.60
2019-05-16T21:12:17.245Z,2.60
2019-05-16T21:14:46.703Z,2.70
2019-05-16T21:17:17.460Z,3.00
2019-05-16T21:19:48.309Z,3.30
2019-05-16T21:22:19.442Z,4.83
2019-05-16T21:24:48.267Z,2.30
2019-05-16T21:27:19.056Z,2.10
2019-05-16T21:29:48.395Z,3.20
2019-05-16T21:32:17.484Z,2.27
2019-05-16T21:34:46.889Z,2.93
2019-05-16T21:37:19.713Z,2.00
2019-05-16T21:39:47.486Z,2.60
2019-05-16T21:42:16.795Z,3.57
2019-05-16T21:44:46.663Z,2.17
2019-05-16T21:47:16.829Z,3.23
2019-05-16T21:49:47.239Z,2.33
2019-05-16T21:52:16.535Z,2.43
2019-05-16T21:54:47.183Z,2.07
2019-05-16T21:57:19.672Z,4.10
2019-05-16T21:59:47.734Z,2.60
2019-05-16T22:02:16.936Z,2.00
2019-05-16T22:04:47.351Z,2.47
2019-05-16T22:07:16.654Z,2.40
2019-05-16T22:09:46.593Z,2.93
2019-05-16T22:12:17.298Z,4.00
2019-05-16T22:14:54.211Z,11.37
2019-05-16T22:17:23.279Z,7.77
2019-05-16T22:19:52.394Z,7.97
2019-05-16T22:22:21.500Z,10.33
2019-05-16T22:24:50.520Z,12.00
2019-05-16T22:27:19.613Z,12.60
2019-05-16T22:29:48.728Z,15.37
2019-05-16T22:32:21.071Z,13.10
2019-05-16T22:34:53.855Z,12.13
2019-05-16T22:37:22.848Z,14.50
2019-05-16T22:39:51.964Z,14.03
2019-05-16T22:42:21.115Z,15.00
2019-05-16T22:44:51.383Z,16.50
2019-05-16T22:47:20.634Z,13.20
2019-05-16T22:49:52.639Z,14.83
2019-05-16T22:52:22.969Z,12.90
2019-05-16T22:54:51.979Z,12.93
2019-05-16T22:57:22.009Z,10.20
2019-05-16T22:59:52.723Z,13.97
2019-05-16T23:02:24.218Z,9.47
2019-05-16T23:04:56.528Z,9.87
2019-05-16T23:07:27.571Z,9.97
2019-05-16T23:09:59.527Z,18.93
2019-05-16T23:12:29.104Z,12.40
2019-05-16T23:14:59.359Z,10.10
2019-05-16T23:17:29.071Z,13.87
2019-05-16T23:20:00.760Z,11.73
2019-05-16T23:22:32.838Z,11.23
2019-05-16T23:25:03.263Z,14.03
2019-05-16T23:27:36.579Z,11.33
2019-05-16T23:30:09.607Z,11.00
2019-05-16T23:32:38.604Z,8.70
2019-05-16T23:35:07.694Z,12.93
2019-05-16T23:37:37.164Z,10.60
2019-05-16T23:40:06.506Z,14.30
2019-05-16T23:42:37.066Z,8.43
2019-05-16T23:45:08.630Z,9.53
2019-05-16T23:47:37.905Z,10.07
2019-05-16T23:50:07.582Z,8.30
2019-05-16T23:52:37.086Z,9.70
2019-05-16T23:55:09.344Z,8.93
2019-05-16T23:57:38.454Z,11.00
